To NAV CANADA Home Page Login to a new session Search on AWWS site Feedback and Comments Disclaimer Vers la page française équivalente Tips FAQ What's new on the site To the Forecasts and Observations / NOTAM section To "File a Flight Plan" website Publications and other links Update of the User's profile FIC Telephone Numbers My Weather Data Folder Route Weather Data Regional Weather Data Local Weather Data To the Forecasts and Observations / NOTAM section
Request Generated 03/27/2015 at 19:06:35 UTC . Weather information available at that time is displayed.

METAR/TAF

HAVRE ST-PIERRE/QC    (show WxCam)

METAR CYGV 271900Z AUTO 25012KT 9SM BKN006 BKN080 00/M01 A2955 RMK
PRESRR SLP008=
SPECI CYGV 271827Z AUTO 24012KT 9SM BKN006 BKN085 00/M01 A2955 RMK
PRESRR SLP010=
METAR CYGV 271800Z AUTO 23012G17KT 9SM BKN055 OVC088 00/M02 A2955 RMK
SLP007=
METAR CYGV 271700Z AUTO 22007KT 9SM BKN090 02/M03 A2956 RMK SLP011=

TAF AMD CYGV 271831Z 2718/2802 24012G22KT P6SM SCT006 BKN080 TEMPO
2718/2724 5SM BR BKN006
BECMG 2722/2724 28006KT
FM280000 33010KT P6SM SCT030 TEMPO 2800/2802 BKN030
RMK FCST BASED ON AUTO OBS. NXT FCST BY 272000Z=
Your time UTC time
Weather data provided by Environment Canada and NAV CANADA